Branch, Arkansas
Current Conditions -  °F | °C
As of 3:53 AM on Wednesday 26 Nov 2014 (Local Time) from KFSM Reporting Station
Clear Clear  
Wind Chill: 26°   Ceiling: Unl
Heat Index: 32°   Visibility: 10mi
Dew Point: 27°   Wind: 7mph
Humidity: 82%   Direction: 50°NE
Pressure: 30.04"   Gusts: NA
Location:  35.31°N, 93.95°W
Report Text: KFSM 260953Z AUTO 05006KT 10SM CLR 00/M03 A3004 RMK AO2 SLP173 T00001028
Loading
Personal Weather Stations






























Interactive Weather Map New forecast layout! Learn more

10-Day Weather Forecast

Advertisements
Track Severe Weather on mobile